Time;durP1;ratioP1;P1;durP2;ratioP2;P2;SDS_P1;SDS_P2;PMS_P1;PMS_P2;Temp;Humidity;BMP_temperature;BMP_pressure;BME280_temperature;BME280_humidity;BME280_pressure;Samples;Min_cycle;Max_cycle;Signal;HPM_P1;HPM_P2
2022/08/01 00:00:26;;;;;;;2.10;0.50;;;16.00;99.90;;;;;;5035173;28;20198;-73
2022/08/01 00:02:59;;;;;;;1.25;0.57;;;16.10;99.90;;;;;;5035247;28;20198;-73
2022/08/01 00:05:30;;;;;;;1.02;0.60;;;16.30;99.90;;;;;;5034788;28;20540;-75
2022/08/01 00:08:00;;;;;;;0.52;0.40;;;16.50;99.90;;;;;;5035206;28;20195;-76
2022/08/01 00:10:31;;;;;;;0.40;0.40;;;16.60;99.90;;;;;;5032422;28;20194;-77
2022/08/01 00:13:02;;;;;;;0.93;0.57;;;16.70;99.90;;;;;;5035222;28;20289;-73
2022/08/01 00:15:36;;;;;;;1.13;0.50;;;16.80;99.90;;;;;;5034973;28;20194;-82
2022/08/01 00:18:08;;;;;;;0.95;0.57;;;16.90;99.90;;;;;;5033528;28;20662;-75
2022/08/01 00:20:39;;;;;;;1.65;0.63;;;17.10;99.90;;;;;;5029804;28;20190;-74
2022/08/01 00:23:10;;;;;;;3.22;0.52;;;17.20;99.90;;;;;;5023847;28;20202;-81
2022/08/01 00:25:40;;;;;;;0.77;0.50;;;17.30;99.90;;;;;;5033524;28;20208;-80
2022/08/01 00:28:11;;;;;;;0.77;0.50;;;17.30;99.90;;;;;;5041646;28;20221;-76
2022/08/01 00:30:44;;;;;;;0.95;0.50;;;17.40;99.90;;;;;;5044308;28;20194;-79
2022/08/01 00:33:16;;;;;;;1.67;0.60;;;17.60;99.90;;;;;;5035961;28;20617;-74
2022/08/01 00:35:47;;;;;;;2.45;0.50;;;17.70;99.90;;;;;;5034435;28;20194;-78
2022/08/01 00:38:18;;;;;;;2.17;0.50;;;17.90;99.90;;;;;;5034771;28;20325;-82
2022/08/01 00:40:48;;;;;;;3.33;0.75;;;17.90;99.90;;;;;;5037514;28;20217;-80
2022/08/01 00:43:19;;;;;;;3.75;1.95;;;18.00;99.90;;;;;;5046540;28;20213;-78
2022/08/01 00:45:50;;;;;;;3.83;0.68;;;18.10;99.90;;;;;;5034151;28;20203;-77
2022/08/01 00:48:22;;;;;;;4.90;0.50;;;18.30;99.90;;;;;;5034245;28;20198;-73
2022/08/01 00:50:53;;;;;;;0.40;0.40;;;18.30;99.90;;;;;;5034310;28;20190;-83
2022/08/01 00:53:24;;;;;;;0.90;0.30;;;18.40;99.90;;;;;;5036233;28;21576;-77
2022/08/01 00:55:55;;;;;;;0.90;0.40;;;18.50;99.90;;;;;;5022958;28;20202;-79
2022/08/01 00:58:28;;;;;;;1.63;0.40;;;18.50;99.90;;;;;;5036835;28;20201;-83
2022/08/01 01:00:59;;;;;;;0.40;0.40;;;18.50;99.90;;;;;;5034516;28;20206;-79
2022/08/01 01:03:31;;;;;;;2.15;0.80;;;18.60;99.90;;;;;;5036912;28;20198;-75
2022/08/01 01:06:14;;;;;;;1.27;0.40;;;18.60;99.90;;;;;;5033889;28;20202;-72
2022/08/01 01:08:49;;;;;;;1.35;0.40;;;18.70;99.90;;;;;;5033862;28;20201;-72
2022/08/01 01:11:28;;;;;;;2.55;0.65;;;18.80;99.90;;;;;;5034697;28;20236;-80
2022/08/01 01:14:04;;;;;;;1.27;0.45;;;18.80;99.90;;;;;;5033791;28;20210;-84
2022/08/01 01:16:36;;;;;;;0.40;0.30;;;18.80;99.90;;;;;;5038963;28;20185;-78
2022/08/01 01:19:12;;;;;;;2.03;0.60;;;18.90;99.90;;;;;;5043929;28;20660;-83
2022/08/01 01:22:17;;;;;;;0.75;0.43;;;18.90;99.90;;;;;;5034128;28;20190;-73
2022/08/01 01:25:00;;;;;;;0.98;0.60;;;18.90;99.90;;;;;;5029287;28;20210;-73
2022/08/01 01:27:47;;;;;;;0.38;0.35;;;18.90;99.90;;;;;;5035125;28;20217;-72
2022/08/01 01:30:21;;;;;;;0.77;0.40;;;19.00;99.90;;;;;;5040642;28;20198;-74
2022/08/01 01:32:54;;;;;;;0.90;0.57;;;19.00;99.90;;;;;;5033555;28;20576;-83
2022/08/01 01:35:29;;;;;;;4.97;1.25;;;19.00;99.90;;;;;;5033605;28;20218;-77
2022/08/01 01:38:07;;;;;;;1.17;0.40;;;19.00;99.90;;;;;;5044614;28;20229;-73
2022/08/01 01:40:38;;;;;;;0.47;0.40;;;19.00;99.90;;;;;;5044293;28;20693;-83
2022/08/01 01:43:13;;;;;;;0.82;0.50;;;19.10;99.90;;;;;;5031691;28;20209;-73
2022/08/01 01:45:49;;;;;;;0.30;0.30;;;19.20;99.90;;;;;;5035889;28;20205;-75
2022/08/01 01:48:23;;;;;;;1.80;0.40;;;19.20;99.90;;;;;;5031655;28;20316;-83
2022/08/01 01:50:56;;;;;;;0.90;0.40;;;19.30;99.90;;;;;;5031754;28;20191;-79
2022/08/01 01:53:28;;;;;;;3.20;0.50;;;19.30;99.90;;;;;;5040710;28;20204;-85
2022/08/01 01:56:01;;;;;;;0.52;0.45;;;19.40;99.90;;;;;;5036168;28;20202;-86
2022/08/01 01:58:34;;;;;;;0.82;0.30;;;19.40;99.90;;;;;;5038344;28;20194;-84
2022/08/01 02:01:08;;;;;;;1.38;0.45;;;19.50;99.90;;;;;;5028024;28;20190;-86
2022/08/01 02:03:41;;;;;;;1.35;0.50;;;19.60;99.90;;;;;;5041062;28;20283;-72
2022/08/01 02:06:14;;;;;;;2.08;0.40;;;19.60;99.90;;;;;;5045835;28;20646;-83
2022/08/01 02:08:47;;;;;;;1.08;0.60;;;19.70;99.90;;;;;;5029197;28;20198;-85
2022/08/01 02:11:21;;;;;;;1.00;0.40;;;19.70;99.90;;;;;;5033497;28;20203;-84
2022/08/01 02:13:57;;;;;;;0.60;0.43;;;19.60;99.90;;;;;;5027783;28;20311;-83
2022/08/01 02:16:34;;;;;;;1.77;0.50;;;19.50;99.90;;;;;;5027412;28;20643;-82
2022/08/01 02:19:05;;;;;;;0.43;0.40;;;19.50;99.90;;;;;;5029621;28;20553;-86
2022/08/01 02:21:43;;;;;;;2.33;0.50;;;19.40;99.90;;;;;;5031082;28;20201;-83
2022/08/01 02:24:19;;;;;;;0.80;0.50;;;19.20;99.90;;;;;;5032147;28;20202;-82
2022/08/01 02:26:54;;;;;;;1.02;0.55;;;19.10;99.90;;;;;;5020932;28;20206;-76
2022/08/01 02:29:30;;;;;;;1.95;0.60;;;18.90;99.90;;;;;;5028120;28;20677;-83
2022/08/01 02:32:05;;;;;;;3.65;0.70;;;18.90;99.90;;;;;;5028593;28;20207;-82
2022/08/01 02:34:37;;;;;;;0.52;0.40;;;19.00;99.90;;;;;;5028691;28;20213;-84
2022/08/01 02:37:09;;;;;;;0.82;0.60;;;19.20;99.90;;;;;;5030141;28;20229;-81
2022/08/01 02:39:43;;;;;;;5.68;1.20;;;19.40;99.90;;;;;;5027205;28;20198;-80
2022/08/01 02:42:16;;;;;;;1.10;0.70;;;19.50;99.90;;;;;;5033547;28;20197;-86
2022/08/01 02:44:48;;;;;;;1.90;0.60;;;19.60;99.90;;;;;;5033144;28;20197;-73
2022/08/01 02:47:24;;;;;;;0.68;0.50;;;19.80;99.90;;;;;;5030876;28;20680;-81
2022/08/01 02:49:56;;;;;;;0.60;0.50;;;19.80;99.90;;;;;;5021359;28;20202;-82
2022/08/01 02:52:29;;;;;;;3.00;0.70;;;19.80;99.90;;;;;;5031253;28;20553;-82
2022/08/01 02:55:01;;;;;;;0.73;0.60;;;19.90;99.90;;;;;;5018993;28;20229;-75
2022/08/01 02:57:33;;;;;;;1.33;0.55;;;20.00;99.90;;;;;;5030503;28;20202;-74
2022/08/01 03:00:05;;;;;;;1.10;0.50;;;19.90;99.90;;;;;;5036383;28;20212;-75
2022/08/01 03:02:39;;;;;;;1.48;0.60;;;20.00;99.90;;;;;;5032092;28;20977;-75
2022/08/01 03:05:12;;;;;;;2.10;0.50;;;20.10;99.90;;;;;;5031118;28;20202;-75
2022/08/01 03:07:44;;;;;;;1.50;0.50;;;20.20;99.90;;;;;;5030007;28;20567;-74
2022/08/01 03:10:15;;;;;;;2.80;0.65;;;20.20;99.90;;;;;;5028101;28;20201;-72
2022/08/01 03:12:47;;;;;;;0.40;0.40;;;20.00;99.90;;;;;;5029669;28;20205;-74
2022/08/01 03:15:21;;;;;;;0.55;0.55;;;19.70;99.90;;;;;;5030210;28;20222;-74
2022/08/01 03:17:55;;;;;;;0.77;0.50;;;19.60;99.90;;;;;;5027000;28;20209;-77
2022/08/01 03:20:27;;;;;;;1.75;0.40;;;19.50;99.90;;;;;;5030256;28;20204;-80
2022/08/01 03:23:00;;;;;;;0.55;0.50;;;19.20;99.90;;;;;;5032129;28;20190;-82
2022/08/01 03:25:31;;;;;;;1.00;0.70;;;19.20;99.90;;;;;;5031141;28;20198;-79
2022/08/01 03:28:04;;;;;;;0.65;0.47;;;19.30;99.90;;;;;;5032154;28;20264;-75
2022/08/01 03:30:37;;;;;;;1.08;0.57;;;19.50;99.90;;;;;;5028156;28;20215;-81
2022/08/01 03:33:10;;;;;;;1.45;0.50;;;19.70;99.90;;;;;;5027954;28;20271;-79
2022/08/01 03:35:50;;;;;;;2.67;0.60;;;19.80;99.90;;;;;;5031500;28;20218;-79
2022/08/01 03:38:25;;;;;;;0.70;0.43;;;19.90;99.90;;;;;;5029446;28;20252;-78
2022/08/01 03:40:59;;;;;;;0.50;0.50;;;19.90;99.90;;;;;;5025456;28;20201;-76
2022/08/01 03:43:41;;;;;;;0.60;0.50;;;19.70;99.90;;;;;;5029250;28;20209;-77
2022/08/01 03:46:29;;;;;;;0.52;0.40;;;19.70;99.90;;;;;;5027059;28;20213;-78
2022/08/01 03:49:07;;;;;;;1.15;0.45;;;19.80;99.90;;;;;;5031075;28;20225;-77
2022/08/01 03:51:39;;;;;;;1.10;0.40;;;19.80;99.90;;;;;;5024390;28;20202;-80
2022/08/01 03:54:14;;;;;;;2.03;0.45;;;19.80;99.90;;;;;;5022880;28;20198;-76
2022/08/01 03:56:46;;;;;;;0.75;0.55;;;19.80;99.90;;;;;;5032060;28;20559;-81
2022/08/01 03:59:19;;;;;;;0.63;0.40;;;19.70;99.90;;;;;;5032314;28;20255;-78
2022/08/01 04:01:50;;;;;;;0.68;0.50;;;19.70;99.90;;;;;;5032131;28;20206;-77
2022/08/01 04:04:23;;;;;;;0.40;0.40;;;19.90;99.90;;;;;;5032598;28;20218;-77
2022/08/01 04:06:55;;;;;;;1.23;0.40;;;19.80;99.90;;;;;;5034811;28;20198;-74
2022/08/01 04:09:26;;;;;;;0.57;0.20;;;19.70;99.90;;;;;;5034547;28;20551;-77
2022/08/01 04:11:56;;;;;;;1.27;0.50;;;19.80;99.90;;;;;;5036376;28;20198;-75
2022/08/01 04:14:27;;;;;;;0.80;0.30;;;19.80;99.90;;;;;;5039793;28;20218;-77
2022/08/01 04:16:58;;;;;;;1.15;0.30;;;19.90;99.90;;;;;;5030770;28;20190;-80
2022/08/01 04:19:30;;;;;;;0.70;0.30;;;19.90;99.90;;;;;;5030923;28;20194;-81
2022/08/01 04:22:02;;;;;;;2.35;0.47;;;19.90;99.90;;;;;;5031599;28;20198;-77
2022/08/01 04:24:35;;;;;;;0.82;0.40;;;19.90;99.90;;;;;;5033896;28;20210;-79
2022/08/01 04:27:09;;;;;;;0.65;0.30;;;19.80;99.90;;;;;;5034634;28;20710;-77
2022/08/01 04:29:40;;;;;;;0.90;0.30;;;19.90;99.90;;;;;;5027808;28;20645;-77
2022/08/01 04:32:15;;;;;;;1.08;0.30;;;19.90;99.90;;;;;;5032871;28;20569;-76
2022/08/01 04:34:49;;;;;;;1.67;0.40;;;19.90;99.90;;;;;;5026643;28;20210;-76
2022/08/01 04:37:23;;;;;;;0.50;0.30;;;19.90;99.90;;;;;;5034347;28;20198;-75
2022/08/01 04:39:56;;;;;;;1.60;0.30;;;19.90;99.90;;;;;;5034958;28;20197;-81
2022/08/01 04:42:27;;;;;;;0.65;0.40;;;19.80;99.90;;;;;;5034656;28;20205;-78
2022/08/01 04:44:58;;;;;;;1.02;0.40;;;19.80;99.90;;;;;;5034766;28;20198;-74
2022/08/01 04:47:29;;;;;;;0.47;0.40;;;19.80;99.90;;;;;;5043297;28;20186;-75
2022/08/01 04:50:03;;;;;;;1.40;0.60;;;19.90;99.90;;;;;;5035474;28;20282;-74
2022/08/01 04:52:37;;;;;;;3.75;0.40;;;19.80;99.90;;;;;;5033084;28;20198;-76
2022/08/01 04:55:09;;;;;;;1.80;0.43;;;19.80;99.90;;;;;;5022516;28;20217;-79
2022/08/01 04:57:46;;;;;;;1.92;0.40;;;19.70;99.90;;;;;;5032047;28;20194;-79
2022/08/01 05:00:18;;;;;;;0.20;0.20;;;19.70;99.90;;;;;;5034350;28;20628;-77
2022/08/01 05:02:49;;;;;;;0.98;0.40;;;19.70;99.90;;;;;;5034248;28;20634;-77
2022/08/01 05:05:22;;;;;;;1.83;0.52;;;19.70;99.90;;;;;;5033393;28;20635;-78
2022/08/01 05:07:53;;;;;;;0.30;0.30;;;19.70;99.90;;;;;;5033445;28;20203;-73
2022/08/01 05:10:24;;;;;;;1.40;0.30;;;19.60;99.90;;;;;;5028873;28;20210;-76
2022/08/01 05:12:54;;;;;;;1.88;0.43;;;19.60;99.90;;;;;;5033136;28;20273;-74
2022/08/01 05:15:25;;;;;;;1.40;0.30;;;19.60;99.90;;;;;;5033403;28;20215;-74
2022/08/01 05:17:56;;;;;;;1.10;0.30;;;19.60;99.90;;;;;;5034020;28;20200;-77
2022/08/01 05:20:28;;;;;;;0.32;0.20;;;19.50;99.90;;;;;;5033985;28;20190;-75
2022/08/01 05:22:59;;;;;;;1.50;0.32;;;19.50;99.90;;;;;;5034222;28;20195;-79
2022/08/01 05:25:30;;;;;;;0.30;0.30;;;19.50;99.90;;;;;;5034132;28;20559;-74
2022/08/01 05:28:00;;;;;;;0.50;0.30;;;19.50;99.90;;;;;;5035813;28;20226;-76
2022/08/01 05:30:31;;;;;;;0.45;0.30;;;19.50;99.90;;;;;;5035118;28;20252;-75
2022/08/01 05:33:02;;;;;;;0.60;0.30;;;19.40;99.90;;;;;;5033403;28;20607;-73
2022/08/01 05:35:34;;;;;;;0.32;0.30;;;19.40;99.90;;;;;;5033897;28;20222;-74
2022/08/01 05:38:05;;;;;;;0.63;0.38;;;19.30;99.90;;;;;;5033720;28;20245;-75
2022/08/01 05:40:37;;;;;;;0.88;0.25;;;19.30;99.90;;;;;;5033594;28;20545;-74
2022/08/01 05:43:08;;;;;;;1.05;0.32;;;19.30;99.90;;;;;;5033098;28;20198;-77
2022/08/01 05:45:41;;;;;;;1.65;0.38;;;19.30;99.90;;;;;;5033026;28;20198;-77
2022/08/01 05:48:11;;;;;;;1.27;0.32;;;19.30;99.90;;;;;;5033387;28;20292;-77
2022/08/01 05:50:44;;;;;;;0.90;0.30;;;19.30;99.90;;;;;;5033501;28;20205;-77
2022/08/01 05:53:15;;;;;;;0.90;0.30;;;19.30;99.90;;;;;;5033576;28;20645;-75
2022/08/01 05:55:45;;;;;;;0.30;0.30;;;19.40;99.90;;;;;;5033195;28;20222;-75
2022/08/01 05:58:16;;;;;;;0.65;0.30;;;19.30;99.90;;;;;;5032866;28;20194;-75
2022/08/01 06:00:47;;;;;;;0.30;0.30;;;19.30;99.90;;;;;;5032188;28;20206;-76
2022/08/01 06:03:17;;;;;;;1.95;0.38;;;19.30;99.90;;;;;;5030058;28;20224;-74
2022/08/01 06:05:50;;;;;;;0.57;0.30;;;19.30;99.90;;;;;;5033374;28;20209;-75
2022/08/01 06:08:20;;;;;;;0.30;0.25;;;19.30;99.90;;;;;;5044462;28;20186;-74
2022/08/01 06:10:51;;;;;;;0.30;0.30;;;19.20;99.90;;;;;;5032727;28;20206;-77
2022/08/01 06:13:22;;;;;;;0.20;0.20;;;19.10;99.90;;;;;;5033054;28;20197;-74
2022/08/01 06:15:53;;;;;;;0.30;0.30;;;19.10;99.90;;;;;;5033224;28;20226;-77
2022/08/01 06:18:24;;;;;;;0.60;0.30;;;19.10;99.90;;;;;;5032807;28;20191;-76
2022/08/01 06:20:56;;;;;;;0.82;0.50;;;19.00;99.90;;;;;;5032810;28;20571;-74
2022/08/01 06:23:27;;;;;;;1.85;0.40;;;19.00;99.90;;;;;;5032439;28;20202;-76
2022/08/01 06:25:58;;;;;;;0.40;0.35;;;19.00;99.90;;;;;;5020765;28;20206;-78
2022/08/01 06:28:28;;;;;;;0.75;0.40;;;19.00;99.90;;;;;;5036204;28;20222;-76
2022/08/01 06:31:00;;;;;;;0.30;0.30;;;18.90;99.90;;;;;;5052800;28;20193;-74
2022/08/01 06:33:31;;;;;;;0.70;0.40;;;18.90;99.90;;;;;;5042867;28;20269;-79
2022/08/01 06:36:04;;;;;;;0.98;0.40;;;18.80;99.90;;;;;;5031843;28;20229;-78
2022/08/01 06:38:35;;;;;;;0.75;0.50;;;18.70;99.90;;;;;;5027213;28;20249;-77
2022/08/01 06:41:05;;;;;;;0.47;0.30;;;18.60;99.90;;;;;;5030682;28;20273;-77
2022/08/01 06:43:36;;;;;;;0.40;0.30;;;18.60;99.90;;;;;;5032233;28;20195;-77
2022/08/01 06:46:07;;;;;;;0.57;0.38;;;18.50;99.90;;;;;;5031876;28;20194;-73
2022/08/01 06:48:39;;;;;;;0.43;0.30;;;18.40;99.90;;;;;;5032235;28;20189;-76
2022/08/01 06:51:13;;;;;;;0.30;0.30;;;18.40;99.90;;;;;;5032628;28;20186;-74
2022/08/01 06:53:44;;;;;;;0.82;0.50;;;18.40;99.90;;;;;;5032452;28;20209;-73
2022/08/01 06:56:15;;;;;;;0.40;0.40;;;18.30;99.90;;;;;;5028092;28;20226;-76
2022/08/01 06:58:45;;;;;;;1.20;0.32;;;18.30;99.90;;;;;;5012859;28;20206;-74
2022/08/01 07:01:16;;;;;;;0.73;0.40;;;18.20;99.90;;;;;;5012756;28;20187;-73
2022/08/01 07:03:47;;;;;;;0.40;0.30;;;18.00;99.90;;;;;;5032171;28;20525;-75
2022/08/01 07:06:19;;;;;;;0.40;0.40;;;17.90;99.90;;;;;;5028088;28;20198;-74
2022/08/01 07:08:50;;;;;;;3.70;0.60;;;17.90;99.90;;;;;;5029187;28;20257;-74
2022/08/01 07:11:20;;;;;;;1.40;0.50;;;17.80;99.90;;;;;;5031355;28;20198;-77
2022/08/01 07:13:51;;;;;;;0.98;0.60;;;17.70;99.90;;;;;;5032243;28;20553;-74
2022/08/01 07:16:22;;;;;;;0.55;0.47;;;17.60;99.90;;;;;;5027320;28;20581;-76
2022/08/01 07:18:52;;;;;;;0.50;0.50;;;17.50;99.90;;;;;;5032349;28;20194;-77
2022/08/01 07:21:25;;;;;;;0.88;0.60;;;17.40;99.90;;;;;;5032455;28;20186;-78
2022/08/01 07:23:55;;;;;;;0.50;0.50;;;17.40;99.90;;;;;;5029219;28;20572;-73
2022/08/01 07:26:26;;;;;;;1.48;0.73;;;17.30;99.90;;;;;;5031851;28;20664;-76
2022/08/01 07:28:57;;;;;;;1.05;0.70;;;17.20;99.90;;;;;;5049778;28;20535;-76
2022/08/01 07:31:27;;;;;;;0.95;0.70;;;17.20;99.90;;;;;;5056034;28;20212;-77
2022/08/01 07:33:58;;;;;;;0.93;0.60;;;17.10;99.90;;;;;;5041937;28;20197;-77
2022/08/01 07:36:31;;;;;;;2.35;0.70;;;17.10;99.90;;;;;;5028570;28;20231;-77
2022/08/01 07:39:01;;;;;;;3.42;0.80;;;17.00;99.90;;;;;;5030971;28;20709;-79
2022/08/01 07:41:32;;;;;;;1.33;0.80;;;17.00;99.90;;;;;;5035688;28;20186;-76
2022/08/01 07:44:02;;;;;;;1.13;0.77;;;16.90;99.90;;;;;;5035769;28;20201;-77
2022/08/01 07:46:33;;;;;;;0.70;0.70;;;16.90;99.90;;;;;;5035118;28;20190;-78
2022/08/01 07:49:04;;;;;;;1.40;0.90;;;16.80;99.90;;;;;;5035490;28;20190;-78
2022/08/01 07:51:36;;;;;;;3.63;1.00;;;16.70;99.90;;;;;;5035687;28;20213;-77
2022/08/01 07:54:07;;;;;;;1.10;0.80;;;16.60;99.90;;;;;;5036459;28;20582;-77
2022/08/01 07:56:38;;;;;;;1.02;0.70;;;16.60;99.90;;;;;;5025128;28;20226;-77
2022/08/01 07:59:08;;;;;;;1.45;0.70;;;16.60;99.90;;;;;;5029422;28;20205;-77
2022/08/01 08:01:39;;;;;;;0.90;0.60;;;16.60;99.90;;;;;;5035547;28;20570;-77
2022/08/01 08:04:10;;;;;;;1.52;0.70;;;16.50;99.90;;;;;;5034705;28;20653;-79
2022/08/01 08:06:43;;;;;;;1.42;0.82;;;16.50;99.90;;;;;;5015615;28;20568;-77
2022/08/01 08:09:13;;;;;;;4.70;0.70;;;16.50;99.90;;;;;;5015619;28;20540;-78
2022/08/01 08:11:45;;;;;;;3.15;0.80;;;16.40;99.90;;;;;;5015711;28;20191;-77
2022/08/01 08:14:16;;;;;;;0.93;0.50;;;16.40;99.90;;;;;;5015273;28;20191;-78
2022/08/01 08:16:47;;;;;;;0.65;0.57;;;16.40;99.90;;;;;;5015519;28;20215;-76
2022/08/01 08:19:18;;;;;;;0.90;0.60;;;16.30;99.90;;;;;;5021487;28;20202;-77
2022/08/01 08:21:50;;;;;;;3.05;0.77;;;16.20;99.90;;;;;;5030803;28;20206;-74
2022/08/01 08:24:21;;;;;;;1.73;0.75;;;16.20;99.90;;;;;;5035123;28;20199;-74
2022/08/01 08:26:53;;;;;;;1.00;0.70;;;16.20;99.90;;;;;;5038589;28;20233;-73
2022/08/01 08:29:25;;;;;;;1.67;0.90;;;16.10;99.90;;;;;;5036760;28;20285;-73
2022/08/01 08:31:56;;;;;;;2.38;0.77;;;16.10;99.90;;;;;;5035009;28;20203;-74
2022/08/01 08:34:28;;;;;;;1.55;0.80;;;16.00;99.90;;;;;;5051015;28;20194;-73
2022/08/01 08:37:01;;;;;;;1.23;0.70;;;16.00;99.90;;;;;;5033789;28;20629;-75
2022/08/01 08:39:31;;;;;;;1.00;0.80;;;15.90;99.90;;;;;;5013286;28;20301;-74
2022/08/01 08:42:03;;;;;;;2.05;1.05;;;15.90;99.90;;;;;;5029886;28;20658;-73
2022/08/01 08:44:34;;;;;;;1.67;0.90;;;15.90;99.90;;;;;;5034992;28;20191;-74
2022/08/01 08:47:07;;;;;;;2.05;1.10;;;15.90;99.90;;;;;;5034689;28;20249;-72
2022/08/01 08:49:40;;;;;;;2.88;0.90;;;15.90;99.90;;;;;;5034759;28;20190;-74
2022/08/01 08:52:13;;;;;;;3.72;1.15;;;15.80;99.90;;;;;;5034355;28;20206;-72
2022/08/01 08:54:45;;;;;;;2.88;1.38;;;15.80;99.90;;;;;;5034807;28;20191;-73
2022/08/01 08:57:17;;;;;;;4.47;1.35;;;15.70;99.90;;;;;;5023995;28;20234;-73
2022/08/01 08:59:48;;;;;;;2.80;1.35;;;15.70;99.90;;;;;;5032457;28;20190;-73
2022/08/01 09:02:19;;;;;;;2.38;1.13;;;15.60;99.90;;;;;;5034149;28;20194;-73
2022/08/01 09:04:51;;;;;;;1.73;1.20;;;15.50;99.90;;;;;;5034450;28;20202;-73
2022/08/01 09:07:25;;;;;;;2.20;1.30;;;15.40;99.90;;;;;;5034254;28;20667;-73
2022/08/01 09:09:56;;;;;;;1.83;1.20;;;15.40;99.90;;;;;;5034129;28;20210;-72
2022/08/01 09:12:27;;;;;;;1.58;1.20;;;15.30;99.90;;;;;;5034338;28;20561;-73
2022/08/01 09:14:57;;;;;;;3.10;1.27;;;15.30;99.90;;;;;;5034255;28;20248;-72
2022/08/01 09:17:28;;;;;;;2.92;1.30;;;15.20;99.90;;;;;;5033971;28;20217;-73
2022/08/01 09:19:59;;;;;;;2.45;1.65;;;15.20;99.90;;;;;;5034190;28;20199;-74
2022/08/01 09:22:37;;;;;;;2.85;1.60;;;15.10;99.90;;;;;;5034040;28;20582;-73
2022/08/01 09:25:09;;;;;;;3.88;2.03;;;15.00;99.90;;;;;;5034128;28;20191;-73
2022/08/01 09:27:41;;;;;;;5.15;2.38;;;15.00;99.90;;;;;;5037079;28;20226;-72
2022/08/01 09:30:14;;;;;;;4.70;2.20;;;15.00;99.90;;;;;;5035479;28;20194;-73
2022/08/01 09:33:00;;;;;;;4.25;2.10;;;14.90;99.90;;;;;;5038768;28;20224;-72
2022/08/01 09:35:31;;;;;;;2.78;1.70;;;14.90;99.90;;;;;;5053722;28;20193;-72
2022/08/01 09:38:21;;;;;;;2.50;1.55;;;14.90;99.90;;;;;;5053667;28;20287;-72
2022/08/01 09:40:54;;;;;;;3.58;1.40;;;14.80;99.90;;;;;;5053779;28;20197;-73
2022/08/01 09:43:26;;;;;;;3.35;1.60;;;14.80;99.90;;;;;;5046325;28;20224;-73
2022/08/01 09:45:57;;;;;;;4.18;1.60;;;14.70;99.90;;;;;;5038937;28;20221;-72
2022/08/01 09:48:29;;;;;;;3.15;1.40;;;14.80;99.90;;;;;;5033548;28;20737;-72
2022/08/01 09:51:01;;;;;;;4.22;1.52;;;14.70;99.90;;;;;;5033203;28;20225;-72
2022/08/01 09:53:44;;;;;;;2.13;1.35;;;14.70;99.90;;;;;;5033652;28;20194;-73
2022/08/01 09:56:15;;;;;;;2.75;1.40;;;14.60;99.90;;;;;;5033512;28;20305;-73
2022/08/01 09:58:57;;;;;;;2.45;1.67;;;14.50;99.90;;;;;;5033537;28;20198;-73
2022/08/01 10:01:27;;;;;;;3.38;1.77;;;14.50;99.90;;;;;;5033240;28;20202;-73
2022/08/01 10:04:12;;;;;;;3.53;1.88;;;14.40;99.90;;;;;;5033346;28;20240;-72
2022/08/01 10:06:44;;;;;;;2.65;1.67;;;14.30;99.90;;;;;;5033100;28;20213;-73
2022/08/01 10:09:17;;;;;;;3.03;1.83;;;14.30;99.90;;;;;;5033388;28;20198;-72
2022/08/01 10:11:48;;;;;;;3.30;1.70;;;14.20;99.90;;;;;;5033232;28;20202;-73
2022/08/01 10:14:20;;;;;;;3.88;1.70;;;14.20;99.90;;;;;;5032420;28;20197;-73
2022/08/01 10:16:52;;;;;;;3.70;1.67;;;14.20;99.90;;;;;;5022121;28;20214;-72
2022/08/01 10:19:24;;;;;;;3.58;1.55;;;14.10;99.90;;;;;;5033016;28;20194;-72
2022/08/01 10:21:56;;;;;;;2.60;1.63;;;14.00;99.90;;;;;;5023795;28;20226;-73
2022/08/01 10:24:30;;;;;;;3.28;1.80;;;14.10;99.90;;;;;;5025840;28;20248;-72
2022/08/01 10:27:05;;;;;;;3.55;1.80;;;14.00;99.90;;;;;;5036449;28;20217;-73
2022/08/01 10:29:39;;;;;;;2.92;2.15;;;13.90;99.90;;;;;;5023596;28;20217;-72
2022/08/01 10:32:11;;;;;;;3.20;2.00;;;13.90;99.90;;;;;;5031863;28;20216;-74
2022/08/01 10:34:42;;;;;;;4.47;2.20;;;13.90;99.90;;;;;;5043098;28;20205;-73
2022/08/01 10:37:15;;;;;;;4.32;2.20;;;13.90;99.90;;;;;;5032692;28;20689;-72
2022/08/01 10:39:49;;;;;;;3.08;1.98;;;13.80;99.90;;;;;;5032893;28;20201;-72
2022/08/01 10:42:20;;;;;;;4.57;2.20;;;13.80;99.90;;;;;;5032791;28;20197;-73
2022/08/01 10:44:52;;;;;;;4.40;1.95;;;13.80;99.90;;;;;;5036841;28;20194;-73
2022/08/01 10:47:27;;;;;;;3.42;1.90;;;13.80;99.90;;;;;;5014004;28;20199;-73
2022/08/01 10:50:16;;;;;;;3.50;1.90;;;13.80;99.90;;;;;;5012681;28;20195;-74
2022/08/01 10:53:09;;;;;;;4.43;2.00;;;13.70;99.90;;;;;;5031184;28;20213;-74
2022/08/01 10:55:52;;;;;;;5.07;1.70;;;13.70;99.90;;;;;;5031674;28;20247;-72
2022/08/01 10:58:28;;;;;;;3.47;1.98;;;13.70;99.90;;;;;;5052588;28;20221;-72
2022/08/01 11:01:26;;;;;;;3.20;1.70;;;13.70;99.90;;;;;;5036369;28;20565;-74
2022/08/01 11:04:11;;;;;;;2.53;1.58;;;13.60;99.90;;;;;;5043563;28;20229;-73
2022/08/01 11:06:55;;;;;;;3.47;1.77;;;13.60;99.90;;;;;;5026561;28;20221;-73
2022/08/01 11:09:33;;;;;;;4.03;1.63;;;13.50;99.90;;;;;;5032042;28;20202;-74
2022/08/01 11:12:11;;;;;;;2.15;1.60;;;13.50;99.90;;;;;;5032449;28;20203;-74
2022/08/01 11:15:24;;;;;;;5.20;1.80;;;13.50;99.90;;;;;;5032501;28;20213;-74
2022/08/01 11:17:55;;;;;;;3.17;1.65;;;13.40;99.90;;;;;;5031659;28;20210;-73
2022/08/01 11:20:29;;;;;;;3.17;1.73;;;13.40;99.90;;;;;;5032119;28;20193;-73
2022/08/01 11:23:31;;;;;;;3.15;1.77;;;13.30;99.90;;;;;;5032416;28;20196;-73
2022/08/01 11:26:18;;;;;;;2.97;1.63;;;13.30;99.90;;;;;;5033009;28;20628;-73
2022/08/01 11:29:17;;;;;;;2.72;1.83;;;13.30;99.90;;;;;;5042254;28;20209;-73
2022/08/01 11:31:48;;;;;;;3.78;1.60;;;13.20;99.90;;;;;;5023608;28;20189;-74
2022/08/01 11:34:18;;;;;;;2.38;1.63;;;13.10;99.90;;;;;;5039244;28;20182;-74
2022/08/01 11:36:49;;;;;;;2.33;1.42;;;13.10;99.90;;;;;;5036597;28;20276;-73
2022/08/01 11:39:21;;;;;;;2.78;1.40;;;13.10;99.90;;;;;;5033146;28;20232;-73
2022/08/01 11:41:54;;;;;;;2.20;1.45;;;13.10;99.90;;;;;;5043021;28;20273;-74
2022/08/01 11:44:28;;;;;;;2.08;1.20;;;13.10;99.90;;;;;;5040015;28;20196;-75
2022/08/01 11:47:04;;;;;;;2.05;1.30;;;13.10;99.90;;;;;;5042778;28;20190;-76
2022/08/01 11:49:57;;;;;;;1.90;1.20;;;13.10;99.90;;;;;;5039507;28;20269;-73
2022/08/01 11:52:33;;;;;;;2.92;1.60;;;13.00;99.90;;;;;;5037470;28;20292;-73
2022/08/01 11:55:10;;;;;;;2.47;1.35;;;13.00;99.90;;;;;;5042441;28;20189;-75
2022/08/01 11:57:41;;;;;;;3.05;1.50;;;12.90;99.90;;;;;;5031978;28;20596;-73
2022/08/01 12:00:18;;;;;;;4.03;1.60;;;12.90;99.90;;;;;;5035355;28;20221;-76
2022/08/01 12:02:58;;;;;;;2.00;1.27;;;12.80;99.90;;;;;;5051732;28;20197;-75
2022/08/01 12:05:30;;;;;;;1.77;1.33;;;12.80;99.90;;;;;;5039492;28;20213;-75
2022/08/01 12:08:00;;;;;;;2.28;1.27;;;12.80;99.90;;;;;;5031867;28;20201;-76
2022/08/01 12:10:35;;;;;;;2.17;1.00;;;12.70;99.90;;;;;;5033099;28;20725;-75
2022/08/01 12:13:07;;;;;;;2.85;1.20;;;12.70;99.90;;;;;;5031286;28;20280;-74
2022/08/01 12:15:40;;;;;;;5.95;1.30;;;12.60;99.90;;;;;;5048996;28;20190;-75
2022/08/01 12:18:11;;;;;;;2.47;1.38;;;12.60;99.90;;;;;;5048082;28;20220;-74
2022/08/01 12:20:43;;;;;;;3.63;1.30;;;12.60;99.90;;;;;;5038680;28;20213;-76
2022/08/01 12:23:16;;;;;;;3.17;1.48;;;12.50;99.90;;;;;;5054276;28;20632;-76
2022/08/01 12:25:53;;;;;;;2.67;1.70;;;12.40;99.90;;;;;;5044749;28;20798;-76
2022/08/01 12:28:24;;;;;;;3.47;1.63;;;12.20;99.90;;;;;;5046381;28;20186;-76
2022/08/01 12:30:56;;;;;;;2.63;1.65;;;12.10;99.90;;;;;;5034894;28;20187;-77
2022/08/01 12:33:27;;;;;;;4.55;1.50;;;12.00;99.90;;;;;;5034431;28;20206;-74
2022/08/01 12:35:58;;;;;;;2.55;1.50;;;11.80;99.90;;;;;;5034506;28;20198;-75
2022/08/01 12:38:32;;;;;;;2.83;1.60;;;11.70;99.90;;;;;;5034552;28;20234;-77
2022/08/01 12:41:04;;;;;;;3.83;1.70;;;11.50;99.90;;;;;;5034459;28;20186;-76
2022/08/01 12:43:35;;;;;;;4.88;1.73;;;11.50;99.90;;;;;;5034281;28;20534;-76
2022/08/01 12:46:11;;;;;;;5.07;1.83;;;11.40;99.90;;;;;;5026755;28;20195;-73
2022/08/01 12:48:42;;;;;;;2.33;1.63;;;11.40;99.90;;;;;;5034475;28;20244;-73
2022/08/01 12:51:12;;;;;;;2.88;1.88;;;11.40;99.90;;;;;;5035651;28;20592;-77
2022/08/01 12:53:43;;;;;;;2.40;1.63;;;11.40;99.90;;;;;;5034704;28;20194;-76
2022/08/01 12:56:14;;;;;;;2.25;1.80;;;11.40;99.90;;;;;;5034732;28;20240;-76
2022/08/01 12:58:45;;;;;;;4.20;1.80;;;11.40;99.90;;;;;;5034519;28;20584;-77
2022/08/01 13:01:17;;;;;;;3.63;1.98;;;11.40;99.90;;;;;;5034634;28;20194;-77
2022/08/01 13:04:03;;;;;;;3.50;1.80;;;11.30;99.90;;;;;;5045671;28;20193;-76
2022/08/01 13:06:35;;;;;;;4.10;1.80;;;11.30;99.90;;;;;;5044032;28;20242;-77
2022/08/01 13:09:13;;;;;;;3.15;1.80;;;11.30;99.90;;;;;;5039709;28;20193;-77
2022/08/01 13:11:45;;;;;;;2.63;1.80;;;11.30;99.90;;;;;;5041887;28;20194;-77
2022/08/01 13:14:30;;;;;;;3.25;1.95;;;11.20;99.90;;;;;;5043060;28;20190;-78
2022/08/01 13:17:02;;;;;;;3.72;1.90;;;11.10;99.90;;;;;;5026867;28;20642;-77
2022/08/01 13:19:47;;;;;;;3.58;1.70;;;10.90;99.90;;;;;;5033819;28;20198;-76